sensor_id;sensor_type;location;lat;lon;timestamp;P1;durP1;ratioP1;P2;durP2;ratioP2
29430;SDS011;16404;49.902;10.074;2023-07-31T00:01:39;6.00;;;1.50;;
29430;SDS011;16404;49.902;10.074;2023-07-31T00:04:23;6.32;;;1.65;;
29430;SDS011;16404;49.902;10.074;2023-07-31T00:07:08;6.60;;;1.80;;
29430;SDS011;16404;49.902;10.074;2023-07-31T00:09:52;5.85;;;1.60;;
29430;SDS011;16404;49.902;10.074;2023-07-31T00:12:42;7.03;;;1.70;;
29430;SDS011;16404;49.902;10.074;2023-07-31T00:15:29;5.82;;;1.77;;
29430;SDS011;16404;49.902;10.074;2023-07-31T00:18:14;6.82;;;1.73;;
29430;SDS011;16404;49.902;10.074;2023-07-31T00:20:59;4.93;;;1.50;;
29430;SDS011;16404;49.902;10.074;2023-07-31T00:23:43;6.15;;;1.73;;
29430;SDS011;16404;49.902;10.074;2023-07-31T00:26:28;5.20;;;1.50;;
29430;SDS011;16404;49.902;10.074;2023-07-31T00:29:13;3.35;;;1.70;;
29430;SDS011;16404;49.902;10.074;2023-07-31T00:31:57;4.73;;;1.67;;
29430;SDS011;16404;49.902;10.074;2023-07-31T00:34:42;5.82;;;1.63;;
29430;SDS011;16404;49.902;10.074;2023-07-31T00:37:26;6.30;;;1.80;;
29430;SDS011;16404;49.902;10.074;2023-07-31T00:40:11;5.07;;;1.85;;
29430;SDS011;16404;49.902;10.074;2023-07-31T00:42:55;7.07;;;1.83;;
29430;SDS011;16404;49.902;10.074;2023-07-31T00:45:40;4.18;;;1.58;;
29430;SDS011;16404;49.902;10.074;2023-07-31T00:48:24;4.95;;;1.60;;
29430;SDS011;16404;49.902;10.074;2023-07-31T00:51:10;7.95;;;1.80;;
29430;SDS011;16404;49.902;10.074;2023-07-31T00:53:55;5.88;;;1.67;;
29430;SDS011;16404;49.902;10.074;2023-07-31T00:56:39;5.10;;;1.83;;
29430;SDS011;16404;49.902;10.074;2023-07-31T00:59:25;3.95;;;1.40;;
29430;SDS011;16404;49.902;10.074;2023-07-31T01:02:10;5.32;;;1.77;;
29430;SDS011;16404;49.902;10.074;2023-07-31T01:04:55;6.53;;;1.90;;
29430;SDS011;16404;49.902;10.074;2023-07-31T01:07:54;5.25;;;1.77;;
29430;SDS011;16404;49.902;10.074;2023-07-31T01:10:49;7.53;;;1.73;;
29430;SDS011;16404;49.902;10.074;2023-07-31T01:13:38;7.63;;;1.73;;
29430;SDS011;16404;49.902;10.074;2023-07-31T01:16:23;4.43;;;1.58;;
29430;SDS011;16404;49.902;10.074;2023-07-31T01:19:08;5.78;;;1.80;;
29430;SDS011;16404;49.902;10.074;2023-07-31T01:22:12;6.72;;;1.83;;
29430;SDS011;16404;49.902;10.074;2023-07-31T01:28:02;7.43;;;1.92;;
29430;SDS011;16404;49.902;10.074;2023-07-31T01:30:51;4.10;;;1.60;;
29430;SDS011;16404;49.902;10.074;2023-07-31T01:33:38;5.43;;;1.70;;
29430;SDS011;16404;49.902;10.074;2023-07-31T01:36:23;6.30;;;1.80;;
29430;SDS011;16404;49.902;10.074;2023-07-31T01:39:08;6.93;;;1.85;;
29430;SDS011;16404;49.902;10.074;2023-07-31T01:41:53;6.68;;;1.80;;
29430;SDS011;16404;49.902;10.074;2023-07-31T01:47:22;6.10;;;2.08;;
29430;SDS011;16404;49.902;10.074;2023-07-31T01:52:52;7.30;;;1.60;;
29430;SDS011;16404;49.902;10.074;2023-07-31T01:55:37;6.70;;;1.70;;
29430;SDS011;16404;49.902;10.074;2023-07-31T01:58:21;4.95;;;1.95;;
29430;SDS011;16404;49.902;10.074;2023-07-31T02:01:06;6.20;;;1.80;;
29430;SDS011;16404;49.902;10.074;2023-07-31T02:03:52;4.18;;;1.75;;
29430;SDS011;16404;49.902;10.074;2023-07-31T02:06:36;7.78;;;1.80;;
29430;SDS011;16404;49.902;10.074;2023-07-31T02:09:21;7.15;;;1.70;;
29430;SDS011;16404;49.902;10.074;2023-07-31T02:12:06;6.50;;;1.98;;
29430;SDS011;16404;49.902;10.074;2023-07-31T02:14:52;3.95;;;1.50;;
29430;SDS011;16404;49.902;10.074;2023-07-31T02:17:36;7.50;;;1.95;;
29430;SDS011;16404;49.902;10.074;2023-07-31T02:20:21;6.55;;;1.80;;
29430;SDS011;16404;49.902;10.074;2023-07-31T02:23:06;5.10;;;1.83;;
29430;SDS011;16404;49.902;10.074;2023-07-31T02:25:50;8.30;;;2.38;;
29430;SDS011;16404;49.902;10.074;2023-07-31T02:28:35;6.78;;;1.80;;
29430;SDS011;16404;49.902;10.074;2023-07-31T02:31:19;6.60;;;1.77;;
29430;SDS011;16404;49.902;10.074;2023-07-31T02:34:04;7.43;;;1.80;;
29430;SDS011;16404;49.902;10.074;2023-07-31T02:36:49;5.45;;;1.63;;
29430;SDS011;16404;49.902;10.074;2023-07-31T02:39:33;5.60;;;2.30;;
29430;SDS011;16404;49.902;10.074;2023-07-31T02:42:18;6.13;;;2.00;;
29430;SDS011;16404;49.902;10.074;2023-07-31T02:45:02;4.57;;;1.75;;
29430;SDS011;16404;49.902;10.074;2023-07-31T02:47:47;4.85;;;1.60;;
29430;SDS011;16404;49.902;10.074;2023-07-31T02:50:32;5.85;;;1.90;;
29430;SDS011;16404;49.902;10.074;2023-07-31T02:53:17;6.82;;;1.95;;
29430;SDS011;16404;49.902;10.074;2023-07-31T02:56:01;5.82;;;1.90;;
29430;SDS011;16404;49.902;10.074;2023-07-31T02:58:46;6.55;;;1.98;;
29430;SDS011;16404;49.902;10.074;2023-07-31T03:01:30;6.47;;;1.92;;
29430;SDS011;16404;49.902;10.074;2023-07-31T03:04:15;5.47;;;1.60;;
29430;SDS011;16404;49.902;10.074;2023-07-31T03:07:00;5.27;;;1.77;;
29430;SDS011;16404;49.902;10.074;2023-07-31T03:09:44;5.50;;;1.58;;
29430;SDS011;16404;49.902;10.074;2023-07-31T03:12:29;6.55;;;1.90;;
29430;SDS011;16404;49.902;10.074;2023-07-31T03:15:13;6.15;;;1.95;;
29430;SDS011;16404;49.902;10.074;2023-07-31T03:17:58;3.78;;;1.90;;
29430;SDS011;16404;49.902;10.074;2023-07-31T03:20:43;5.40;;;1.83;;
29430;SDS011;16404;49.902;10.074;2023-07-31T03:23:28;5.78;;;2.22;;
29430;SDS011;16404;49.902;10.074;2023-07-31T03:26:12;5.47;;;2.03;;
29430;SDS011;16404;49.902;10.074;2023-07-31T03:28:57;6.93;;;1.70;;
29430;SDS011;16404;49.902;10.074;2023-07-31T03:31:42;4.43;;;2.00;;
29430;SDS011;16404;49.902;10.074;2023-07-31T03:34:26;7.72;;;2.10;;
29430;SDS011;16404;49.902;10.074;2023-07-31T03:37:11;5.93;;;1.90;;
29430;SDS011;16404;49.902;10.074;2023-07-31T03:39:56;5.85;;;1.95;;
29430;SDS011;16404;49.902;10.074;2023-07-31T03:42:40;4.63;;;1.88;;
29430;SDS011;16404;49.902;10.074;2023-07-31T03:45:25;4.72;;;1.77;;
29430;SDS011;16404;49.902;10.074;2023-07-31T03:48:10;7.07;;;2.08;;
29430;SDS011;16404;49.902;10.074;2023-07-31T03:50:54;5.65;;;1.88;;
29430;SDS011;16404;49.902;10.074;2023-07-31T03:56:24;5.78;;;2.20;;
29430;SDS011;16404;49.902;10.074;2023-07-31T03:59:08;7.22;;;1.98;;
29430;SDS011;16404;49.902;10.074;2023-07-31T04:01:53;5.70;;;2.00;;
29430;SDS011;16404;49.902;10.074;2023-07-31T04:04:37;6.30;;;2.20;;
29430;SDS011;16404;49.902;10.074;2023-07-31T04:07:22;5.55;;;2.10;;
29430;SDS011;16404;49.902;10.074;2023-07-31T04:10:07;3.63;;;1.98;;
29430;SDS011;16404;49.902;10.074;2023-07-31T04:12:52;8.63;;;2.30;;
29430;SDS011;16404;49.902;10.074;2023-07-31T04:15:36;5.75;;;2.22;;
29430;SDS011;16404;49.902;10.074;2023-07-31T04:18:21;4.20;;;1.80;;
29430;SDS011;16404;49.902;10.074;2023-07-31T04:21:08;9.45;;;2.17;;
29430;SDS011;16404;49.902;10.074;2023-07-31T04:23:53;5.78;;;1.83;;
29430;SDS011;16404;49.902;10.074;2023-07-31T04:26:40;7.55;;;2.38;;
29430;SDS011;16404;49.902;10.074;2023-07-31T04:29:24;3.20;;;1.83;;
29430;SDS011;16404;49.902;10.074;2023-07-31T04:32:09;7.32;;;2.08;;
29430;SDS011;16404;49.902;10.074;2023-07-31T04:34:54;6.55;;;2.33;;
29430;SDS011;16404;49.902;10.074;2023-07-31T04:37:38;7.95;;;2.05;;
29430;SDS011;16404;49.902;10.074;2023-07-31T04:40:23;5.50;;;2.47;;
29430;SDS011;16404;49.902;10.074;2023-07-31T04:43:08;4.65;;;2.00;;
29430;SDS011;16404;49.902;10.074;2023-07-31T04:45:52;7.35;;;1.95;;
29430;SDS011;16404;49.902;10.074;2023-07-31T04:51:21;7.20;;;2.08;;
29430;SDS011;16404;49.902;10.074;2023-07-31T04:54:07;6.70;;;2.45;;
29430;SDS011;16404;49.902;10.074;2023-07-31T04:56:52;9.57;;;2.20;;
29430;SDS011;16404;49.902;10.074;2023-07-31T04:59:36;7.18;;;2.33;;
29430;SDS011;16404;49.902;10.074;2023-07-31T05:02:21;6.53;;;2.20;;
29430;SDS011;16404;49.902;10.074;2023-07-31T05:05:06;4.88;;;1.98;;
29430;SDS011;16404;49.902;10.074;2023-07-31T05:07:50;8.95;;;2.30;;
29430;SDS011;16404;49.902;10.074;2023-07-31T05:10:35;8.10;;;2.17;;
29430;SDS011;16404;49.902;10.074;2023-07-31T05:13:20;6.75;;;2.03;;
29430;SDS011;16404;49.902;10.074;2023-07-31T05:16:04;10.10;;;2.25;;
29430;SDS011;16404;49.902;10.074;2023-07-31T05:18:49;9.57;;;2.45;;
29430;SDS011;16404;49.902;10.074;2023-07-31T05:21:33;11.68;;;2.13;;
29430;SDS011;16404;49.902;10.074;2023-07-31T05:24:18;6.05;;;2.10;;
29430;SDS011;16404;49.902;10.074;2023-07-31T05:27:02;6.20;;;2.00;;
29430;SDS011;16404;49.902;10.074;2023-07-31T05:29:48;7.18;;;2.08;;
29430;SDS011;16404;49.902;10.074;2023-07-31T05:32:32;7.65;;;2.30;;
29430;SDS011;16404;49.902;10.074;2023-07-31T05:35:17;9.07;;;2.70;;
29430;SDS011;16404;49.902;10.074;2023-07-31T05:38:02;6.20;;;2.38;;
29430;SDS011;16404;49.902;10.074;2023-07-31T05:40:46;7.90;;;2.40;;
29430;SDS011;16404;49.902;10.074;2023-07-31T05:43:31;6.32;;;2.60;;
29430;SDS011;16404;49.902;10.074;2023-07-31T05:46:16;8.20;;;2.67;;
29430;SDS011;16404;49.902;10.074;2023-07-31T05:49:00;7.63;;;2.03;;
29430;SDS011;16404;49.902;10.074;2023-07-31T05:51:45;4.85;;;2.10;;
29430;SDS011;16404;49.902;10.074;2023-07-31T05:54:29;12.52;;;2.88;;
29430;SDS011;16404;49.902;10.074;2023-07-31T05:57:15;7.10;;;2.30;;
29430;SDS011;16404;49.902;10.074;2023-07-31T05:59:59;6.50;;;2.30;;
29430;SDS011;16404;49.902;10.074;2023-07-31T06:02:44;6.53;;;2.20;;
29430;SDS011;16404;49.902;10.074;2023-07-31T06:05:29;7.55;;;2.10;;
29430;SDS011;16404;49.902;10.074;2023-07-31T06:08:13;9.48;;;2.80;;
29430;SDS011;16404;49.902;10.074;2023-07-31T06:10:58;8.88;;;2.20;;
29430;SDS011;16404;49.902;10.074;2023-07-31T06:13:43;4.82;;;2.15;;
29430;SDS011;16404;49.902;10.074;2023-07-31T06:16:28;6.82;;;2.40;;
29430;SDS011;16404;49.902;10.074;2023-07-31T06:19:13;9.60;;;2.38;;
29430;SDS011;16404;49.902;10.074;2023-07-31T06:21:57;5.07;;;2.25;;
29430;SDS011;16404;49.902;10.074;2023-07-31T06:24:42;7.13;;;2.60;;
29430;SDS011;16404;49.902;10.074;2023-07-31T06:27:27;9.80;;;2.40;;
29430;SDS011;16404;49.902;10.074;2023-07-31T06:32:56;7.20;;;1.75;;
29430;SDS011;16404;49.902;10.074;2023-07-31T06:35:41;8.25;;;2.05;;
29430;SDS011;16404;49.902;10.074;2023-07-31T06:38:26;8.95;;;2.33;;
29430;SDS011;16404;49.902;10.074;2023-07-31T06:43:55;8.85;;;2.70;;
29430;SDS011;16404;49.902;10.074;2023-07-31T06:46:39;6.15;;;2.30;;
29430;SDS011;16404;49.902;10.074;2023-07-31T06:49:24;6.07;;;2.28;;
29430;SDS011;16404;49.902;10.074;2023-07-31T06:52:08;7.97;;;2.22;;
29430;SDS011;16404;49.902;10.074;2023-07-31T06:55:02;6.85;;;2.10;;
29430;SDS011;16404;49.902;10.074;2023-07-31T06:57:59;8.25;;;2.30;;
29430;SDS011;16404;49.902;10.074;2023-07-31T07:00:44;5.72;;;2.20;;
29430;SDS011;16404;49.902;10.074;2023-07-31T07:03:28;7.30;;;2.35;;
29430;SDS011;16404;49.902;10.074;2023-07-31T07:06:13;8.80;;;2.45;;
29430;SDS011;16404;49.902;10.074;2023-07-31T07:08:58;5.70;;;2.72;;
29430;SDS011;16404;49.902;10.074;2023-07-31T07:11:43;6.90;;;2.47;;
29430;SDS011;16404;49.902;10.074;2023-07-31T07:14:28;6.72;;;2.20;;
29430;SDS011;16404;49.902;10.074;2023-07-31T07:17:13;8.50;;;2.40;;
29430;SDS011;16404;49.902;10.074;2023-07-31T07:19:57;8.77;;;2.58;;
29430;SDS011;16404;49.902;10.074;2023-07-31T07:25:27;6.95;;;2.63;;
29430;SDS011;16404;49.902;10.074;2023-07-31T07:28:12;4.72;;;2.10;;
29430;SDS011;16404;49.902;10.074;2023-07-31T07:30:57;6.60;;;2.55;;
29430;SDS011;16404;49.902;10.074;2023-07-31T07:33:42;10.90;;;3.28;;
29430;SDS011;16404;49.902;10.074;2023-07-31T07:36:27;6.90;;;2.30;;
29430;SDS011;16404;49.902;10.074;2023-07-31T07:39:12;6.28;;;2.50;;
29430;SDS011;16404;49.902;10.074;2023-07-31T07:41:56;21.15;;;3.75;;
29430;SDS011;16404;49.902;10.074;2023-07-31T07:44:41;7.68;;;2.33;;
29430;SDS011;16404;49.902;10.074;2023-07-31T07:47:26;9.10;;;2.42;;
29430;SDS011;16404;49.902;10.074;2023-07-31T07:50:10;6.25;;;2.17;;
29430;SDS011;16404;49.902;10.074;2023-07-31T07:52:55;5.40;;;2.20;;
29430;SDS011;16404;49.902;10.074;2023-07-31T07:55:39;9.90;;;2.53;;
29430;SDS011;16404;49.902;10.074;2023-07-31T07:58:24;8.20;;;2.30;;
29430;SDS011;16404;49.902;10.074;2023-07-31T08:01:08;6.40;;;2.55;;
29430;SDS011;16404;49.902;10.074;2023-07-31T08:03:53;9.00;;;2.47;;
29430;SDS011;16404;49.902;10.074;2023-07-31T08:06:38;5.38;;;2.30;;
29430;SDS011;16404;49.902;10.074;2023-07-31T08:09:22;6.70;;;2.50;;
29430;SDS011;16404;49.902;10.074;2023-07-31T08:12:07;7.32;;;2.40;;
29430;SDS011;16404;49.902;10.074;2023-07-31T08:14:51;4.70;;;2.17;;
29430;SDS011;16404;49.902;10.074;2023-07-31T08:17:36;5.22;;;2.13;;
29430;SDS011;16404;49.902;10.074;2023-07-31T08:20:20;5.68;;;2.38;;
29430;SDS011;16404;49.902;10.074;2023-07-31T08:23:05;4.90;;;2.33;;
29430;SDS011;16404;49.902;10.074;2023-07-31T08:25:50;12.98;;;2.67;;
29430;SDS011;16404;49.902;10.074;2023-07-31T08:28:34;5.32;;;2.10;;
29430;SDS011;16404;49.902;10.074;2023-07-31T08:31:20;6.40;;;2.30;;
29430;SDS011;16404;49.902;10.074;2023-07-31T08:34:05;8.48;;;2.60;;
29430;SDS011;16404;49.902;10.074;2023-07-31T08:36:49;7.88;;;2.53;;
29430;SDS011;16404;49.902;10.074;2023-07-31T08:39:34;4.97;;;2.28;;
29430;SDS011;16404;49.902;10.074;2023-07-31T08:42:18;6.47;;;2.42;;
29430;SDS011;16404;49.902;10.074;2023-07-31T08:45:03;5.50;;;2.08;;
29430;SDS011;16404;49.902;10.074;2023-07-31T08:50:33;5.85;;;2.08;;
29430;SDS011;16404;49.902;10.074;2023-07-31T08:53:19;5.38;;;2.33;;
29430;SDS011;16404;49.902;10.074;2023-07-31T08:56:03;5.03;;;2.03;;
29430;SDS011;16404;49.902;10.074;2023-07-31T08:58:49;5.25;;;2.28;;
29430;SDS011;16404;49.902;10.074;2023-07-31T09:01:36;6.03;;;2.25;;
29430;SDS011;16404;49.902;10.074;2023-07-31T09:04:26;6.10;;;2.20;;
29430;SDS011;16404;49.902;10.074;2023-07-31T09:07:11;9.25;;;2.60;;
29430;SDS011;16404;49.902;10.074;2023-07-31T09:09:57;4.95;;;2.42;;
29430;SDS011;16404;49.902;10.074;2023-07-31T09:12:42;6.72;;;2.45;;
29430;SDS011;16404;49.902;10.074;2023-07-31T09:15:27;5.18;;;2.53;;
29430;SDS011;16404;49.902;10.074;2023-07-31T09:18:12;6.43;;;2.90;;
29430;SDS011;16404;49.902;10.074;2023-07-31T09:23:49;6.28;;;2.38;;
29430;SDS011;16404;49.902;10.074;2023-07-31T09:26:38;5.82;;;2.35;;
29430;SDS011;16404;49.902;10.074;2023-07-31T09:29:22;8.10;;;2.53;;
29430;SDS011;16404;49.902;10.074;2023-07-31T09:32:12;6.10;;;2.40;;
29430;SDS011;16404;49.902;10.074;2023-07-31T09:35:00;6.70;;;2.40;;
29430;SDS011;16404;49.902;10.074;2023-07-31T09:37:48;12.02;;;2.70;;
29430;SDS011;16404;49.902;10.074;2023-07-31T09:40:37;8.98;;;2.40;;
29430;SDS011;16404;49.902;10.074;2023-07-31T09:43:29;7.72;;;2.55;;
29430;SDS011;16404;49.902;10.074;2023-07-31T09:46:13;5.18;;;2.25;;
29430;SDS011;16404;49.902;10.074;2023-07-31T09:51:52;7.95;;;2.42;;
29430;SDS011;16404;49.902;10.074;2023-07-31T09:54:37;13.80;;;2.80;;
29430;SDS011;16404;49.902;10.074;2023-07-31T09:57:22;7.65;;;2.33;;
29430;SDS011;16404;49.902;10.074;2023-07-31T10:00:07;8.45;;;2.95;;
29430;SDS011;16404;49.902;10.074;2023-07-31T10:02:55;2.47;;;1.73;;
29430;SDS011;16404;49.902;10.074;2023-07-31T10:05:45;6.22;;;2.22;;
29430;SDS011;16404;49.902;10.074;2023-07-31T10:08:33;5.78;;;2.22;;
29430;SDS011;16404;49.902;10.074;2023-07-31T10:11:20;6.68;;;2.33;;
29430;SDS011;16404;49.902;10.074;2023-07-31T10:14:06;9.18;;;3.08;;
29430;SDS011;16404;49.902;10.074;2023-07-31T10:19:36;4.20;;;2.17;;
29430;SDS011;16404;49.902;10.074;2023-07-31T10:22:22;4.03;;;2.22;;
29430;SDS011;16404;49.902;10.074;2023-07-31T10:25:07;3.90;;;2.00;;
29430;SDS011;16404;49.902;10.074;2023-07-31T10:27:53;5.05;;;2.40;;
29430;SDS011;16404;49.902;10.074;2023-07-31T10:33:23;5.63;;;2.58;;
29430;SDS011;16404;49.902;10.074;2023-07-31T10:36:14;5.90;;;2.40;;
29430;SDS011;16404;49.902;10.074;2023-07-31T10:39:05;7.68;;;2.20;;
29430;SDS011;16404;49.902;10.074;2023-07-31T10:42:20;9.27;;;3.00;;
29430;SDS011;16404;49.902;10.074;2023-07-31T10:45:26;5.55;;;2.47;;
29430;SDS011;16404;49.902;10.074;2023-07-31T10:48:26;5.07;;;2.70;;
29430;SDS011;16404;49.902;10.074;2023-07-31T10:51:18;8.55;;;2.70;;
29430;SDS011;16404;49.902;10.074;2023-07-31T10:54:15;9.02;;;2.50;;
29430;SDS011;16404;49.902;10.074;2023-07-31T10:57:02;7.13;;;2.38;;
29430;SDS011;16404;49.902;10.074;2023-07-31T11:00:21;8.88;;;2.60;;
29430;SDS011;16404;49.902;10.074;2023-07-31T11:03:17;9.00;;;2.95;;
29430;SDS011;16404;49.902;10.074;2023-07-31T11:06:02;6.75;;;2.47;;
29430;SDS011;16404;49.902;10.074;2023-07-31T11:08:48;6.30;;;2.65;;
29430;SDS011;16404;49.902;10.074;2023-07-31T11:11:33;6.28;;;2.78;;
29430;SDS011;16404;49.902;10.074;2023-07-31T11:14:18;6.53;;;2.70;;
29430;SDS011;16404;49.902;10.074;2023-07-31T11:17:05;8.63;;;2.60;;
29430;SDS011;16404;49.902;10.074;2023-07-31T11:19:51;8.60;;;2.88;;
29430;SDS011;16404;49.902;10.074;2023-07-31T11:22:36;7.05;;;2.70;;
29430;SDS011;16404;49.902;10.074;2023-07-31T11:25:20;7.90;;;2.67;;
29430;SDS011;16404;49.902;10.074;2023-07-31T11:28:12;8.05;;;2.30;;
29430;SDS011;16404;49.902;10.074;2023-07-31T11:30:58;4.80;;;2.45;;
29430;SDS011;16404;49.902;10.074;2023-07-31T11:33:42;6.05;;;2.60;;
29430;SDS011;16404;49.902;10.074;2023-07-31T11:36:27;7.10;;;2.25;;
29430;SDS011;16404;49.902;10.074;2023-07-31T11:39:12;6.28;;;2.15;;
29430;SDS011;16404;49.902;10.074;2023-07-31T11:41:59;5.90;;;2.15;;
29430;SDS011;16404;49.902;10.074;2023-07-31T11:44:44;6.97;;;2.40;;
29430;SDS011;16404;49.902;10.074;2023-07-31T11:47:32;5.47;;;2.50;;
29430;SDS011;16404;49.902;10.074;2023-07-31T11:50:20;7.32;;;2.53;;
29430;SDS011;16404;49.902;10.074;2023-07-31T11:53:06;5.55;;;2.58;;
29430;SDS011;16404;49.902;10.074;2023-07-31T11:55:52;7.82;;;2.60;;
29430;SDS011;16404;49.902;10.074;2023-07-31T11:58:39;6.03;;;2.70;;
29430;SDS011;16404;49.902;10.074;2023-07-31T12:01:26;6.57;;;2.75;;
29430;SDS011;16404;49.902;10.074;2023-07-31T12:04:12;7.82;;;2.67;;
29430;SDS011;16404;49.902;10.074;2023-07-31T12:06:56;7.45;;;2.60;;
29430;SDS011;16404;49.902;10.074;2023-07-31T12:09:51;5.93;;;2.28;;
29430;SDS011;16404;49.902;10.074;2023-07-31T12:12:38;5.22;;;2.42;;
29430;SDS011;16404;49.902;10.074;2023-07-31T12:15:28;5.38;;;2.20;;
29430;SDS011;16404;49.902;10.074;2023-07-31T12:18:19;10.93;;;3.05;;
29430;SDS011;16404;49.902;10.074;2023-07-31T12:21:05;4.88;;;2.60;;
29430;SDS011;16404;49.902;10.074;2023-07-31T12:23:52;7.53;;;3.17;;
29430;SDS011;16404;49.902;10.074;2023-07-31T12:26:37;8.10;;;3.00;;
29430;SDS011;16404;49.902;10.074;2023-07-31T12:29:22;8.00;;;3.22;;
29430;SDS011;16404;49.902;10.074;2023-07-31T12:32:22;7.47;;;2.63;;
29430;SDS011;16404;49.902;10.074;2023-07-31T12:35:12;6.32;;;2.60;;
29430;SDS011;16404;49.902;10.074;2023-07-31T12:37:56;8.18;;;2.70;;
29430;SDS011;16404;49.902;10.074;2023-07-31T12:40:45;6.50;;;2.50;;
29430;SDS011;16404;49.902;10.074;2023-07-31T12:43:30;8.90;;;3.22;;
29430;SDS011;16404;49.902;10.074;2023-07-31T12:46:15;6.50;;;2.72;;
29430;SDS011;16404;49.902;10.074;2023-07-31T12:49:00;7.93;;;3.22;;
29430;SDS011;16404;49.902;10.074;2023-07-31T12:54:30;5.80;;;2.45;;
29430;SDS011;16404;49.902;10.074;2023-07-31T12:57:14;6.78;;;2.90;;
29430;SDS011;16404;49.902;10.074;2023-07-31T12:59:59;6.05;;;2.53;;
29430;SDS011;16404;49.902;10.074;2023-07-31T13:02:43;5.93;;;2.63;;
29430;SDS011;16404;49.902;10.074;2023-07-31T13:05:28;5.80;;;2.72;;
29430;SDS011;16404;49.902;10.074;2023-07-31T13:08:13;6.93;;;2.90;;
29430;SDS011;16404;49.902;10.074;2023-07-31T13:10:59;7.43;;;2.45;;
29430;SDS011;16404;49.902;10.074;2023-07-31T13:13:44;8.38;;;3.20;;
29430;SDS011;16404;49.902;10.074;2023-07-31T13:16:28;8.20;;;3.28;;
29430;SDS011;16404;49.902;10.074;2023-07-31T13:19:13;8.77;;;2.67;;
29430;SDS011;16404;49.902;10.074;2023-07-31T13:21:57;11.40;;;3.22;;
29430;SDS011;16404;49.902;10.074;2023-07-31T13:24:42;9.25;;;3.22;;
29430;SDS011;16404;49.902;10.074;2023-07-31T13:27:26;4.65;;;2.65;;
29430;SDS011;16404;49.902;10.074;2023-07-31T13:30:11;8.73;;;2.85;;
29430;SDS011;16404;49.902;10.074;2023-07-31T13:32:56;8.57;;;2.97;;
29430;SDS011;16404;49.902;10.074;2023-07-31T13:35:40;11.43;;;2.78;;
29430;SDS011;16404;49.902;10.074;2023-07-31T13:38:25;8.73;;;2.88;;
29430;SDS011;16404;49.902;10.074;2023-07-31T13:41:09;7.25;;;2.70;;
29430;SDS011;16404;49.902;10.074;2023-07-31T13:43:54;9.32;;;2.60;;
29430;SDS011;16404;49.902;10.074;2023-07-31T13:46:38;11.18;;;2.92;;
29430;SDS011;16404;49.902;10.074;2023-07-31T13:49:23;12.45;;;3.72;;
29430;SDS011;16404;49.902;10.074;2023-07-31T13:52:08;12.90;;;3.22;;
29430;SDS011;16404;49.902;10.074;2023-07-31T13:54:52;7.97;;;3.47;;
29430;SDS011;16404;49.902;10.074;2023-07-31T13:57:37;6.32;;;2.53;;
29430;SDS011;16404;49.902;10.074;2023-07-31T14:00:21;7.72;;;2.70;;
29430;SDS011;16404;49.902;10.074;2023-07-31T14:03:06;6.80;;;2.75;;
29430;SDS011;16404;49.902;10.074;2023-07-31T14:05:51;7.18;;;3.45;;
29430;SDS011;16404;49.902;10.074;2023-07-31T14:08:36;6.63;;;2.78;;
29430;SDS011;16404;49.902;10.074;2023-07-31T14:11:22;7.18;;;2.90;;
29430;SDS011;16404;49.902;10.074;2023-07-31T14:14:06;4.95;;;2.75;;
29430;SDS011;16404;49.902;10.074;2023-07-31T14:16:52;9.25;;;2.88;;
29430;SDS011;16404;49.902;10.074;2023-07-31T14:19:36;12.00;;;2.95;;
29430;SDS011;16404;49.902;10.074;2023-07-31T14:22:30;9.88;;;3.05;;
29430;SDS011;16404;49.902;10.074;2023-07-31T14:25:17;12.43;;;3.30;;
29430;SDS011;16404;49.902;10.074;2023-07-31T14:28:02;9.98;;;3.25;;
29430;SDS011;16404;49.902;10.074;2023-07-31T14:30:46;15.20;;;3.10;;
29430;SDS011;16404;49.902;10.074;2023-07-31T14:33:31;12.25;;;2.95;;
29430;SDS011;16404;49.902;10.074;2023-07-31T14:36:15;8.77;;;2.78;;
29430;SDS011;16404;49.902;10.074;2023-07-31T14:39:00;5.25;;;2.88;;
29430;SDS011;16404;49.902;10.074;2023-07-31T14:41:44;9.85;;;2.83;;
29430;SDS011;16404;49.902;10.074;2023-07-31T14:44:30;9.45;;;2.63;;
29430;SDS011;16404;49.902;10.074;2023-07-31T14:47:15;9.25;;;2.95;;
29430;SDS011;16404;49.902;10.074;2023-07-31T14:49:59;6.50;;;2.45;;
29430;SDS011;16404;49.902;10.074;2023-07-31T14:52:44;9.52;;;3.42;;
29430;SDS011;16404;49.902;10.074;2023-07-31T14:58:13;7.00;;;2.95;;
29430;SDS011;16404;49.902;10.074;2023-07-31T15:00:58;7.05;;;3.40;;
29430;SDS011;16404;49.902;10.074;2023-07-31T15:03:42;9.35;;;3.08;;
29430;SDS011;16404;49.902;10.074;2023-07-31T15:06:27;6.82;;;3.15;;
29430;SDS011;16404;49.902;10.074;2023-07-31T15:09:12;8.27;;;2.90;;
29430;SDS011;16404;49.902;10.074;2023-07-31T15:11:56;8.50;;;3.10;;
29430;SDS011;16404;49.902;10.074;2023-07-31T15:14:41;7.97;;;3.10;;
29430;SDS011;16404;49.902;10.074;2023-07-31T15:17:25;6.05;;;2.67;;
29430;SDS011;16404;49.902;10.074;2023-07-31T15:20:10;9.30;;;3.05;;
29430;SDS011;16404;49.902;10.074;2023-07-31T15:22:56;6.40;;;2.78;;
29430;SDS011;16404;49.902;10.074;2023-07-31T15:25:40;9.18;;;2.80;;
29430;SDS011;16404;49.902;10.074;2023-07-31T15:28:25;6.45;;;2.65;;
29430;SDS011;16404;49.902;10.074;2023-07-31T15:31:09;7.80;;;2.70;;
29430;SDS011;16404;49.902;10.074;2023-07-31T15:33:54;6.15;;;2.88;;
29430;SDS011;16404;49.902;10.074;2023-07-31T15:36:38;5.35;;;2.50;;
29430;SDS011;16404;49.902;10.074;2023-07-31T15:39:23;8.02;;;2.78;;
29430;SDS011;16404;49.902;10.074;2023-07-31T15:42:08;10.15;;;3.05;;
29430;SDS011;16404;49.902;10.074;2023-07-31T15:44:53;8.10;;;3.20;;
29430;SDS011;16404;49.902;10.074;2023-07-31T15:47:37;9.50;;;3.05;;
29430;SDS011;16404;49.902;10.074;2023-07-31T15:53:06;9.80;;;3.60;;
29430;SDS011;16404;49.902;10.074;2023-07-31T15:55:51;12.45;;;2.97;;
29430;SDS011;16404;49.902;10.074;2023-07-31T15:58:35;10.07;;;3.15;;
29430;SDS011;16404;49.902;10.074;2023-07-31T16:01:20;7.47;;;2.67;;
29430;SDS011;16404;49.902;10.074;2023-07-31T16:04:05;10.70;;;3.25;;
29430;SDS011;16404;49.902;10.074;2023-07-31T16:06:49;8.95;;;2.92;;
29430;SDS011;16404;49.902;10.074;2023-07-31T16:09:33;8.65;;;3.25;;
29430;SDS011;16404;49.902;10.074;2023-07-31T16:12:18;5.65;;;2.78;;
29430;SDS011;16404;49.902;10.074;2023-07-31T16:15:03;7.88;;;2.63;;
29430;SDS011;16404;49.902;10.074;2023-07-31T16:17:47;7.63;;;2.70;;
29430;SDS011;16404;49.902;10.074;2023-07-31T16:20:32;11.75;;;3.05;;
29430;SDS011;16404;49.902;10.074;2023-07-31T16:23:16;11.40;;;2.95;;
29430;SDS011;16404;49.902;10.074;2023-07-31T16:26:01;15.07;;;3.17;;
29430;SDS011;16404;49.902;10.074;2023-07-31T16:28:46;20.60;;;3.35;;
29430;SDS011;16404;49.902;10.074;2023-07-31T16:31:30;12.07;;;3.50;;
29430;SDS011;16404;49.902;10.074;2023-07-31T16:34:15;12.23;;;3.03;;
29430;SDS011;16404;49.902;10.074;2023-07-31T16:36:59;12.07;;;3.30;;
29430;SDS011;16404;49.902;10.074;2023-07-31T16:39:44;4.95;;;2.50;;
29430;SDS011;16404;49.902;10.074;2023-07-31T16:42:30;6.60;;;3.00;;
29430;SDS011;16404;49.902;10.074;2023-07-31T16:45:15;8.75;;;2.80;;
29430;SDS011;16404;49.902;10.074;2023-07-31T16:48:00;10.10;;;3.67;;
29430;SDS011;16404;49.902;10.074;2023-07-31T16:50:46;11.45;;;3.63;;
29430;SDS011;16404;49.902;10.074;2023-07-31T16:53:31;7.40;;;2.70;;
29430;SDS011;16404;49.902;10.074;2023-07-31T16:56:15;13.00;;;3.05;;
29430;SDS011;16404;49.902;10.074;2023-07-31T16:59:00;9.88;;;3.30;;
29430;SDS011;16404;49.902;10.074;2023-07-31T17:01:45;10.85;;;2.88;;
29430;SDS011;16404;49.902;10.074;2023-07-31T17:04:29;7.95;;;3.08;;
29430;SDS011;16404;49.902;10.074;2023-07-31T17:07:15;13.57;;;3.05;;